createdAt,value
2018-03-14T00:01:22.529Z,88.75
2018-03-14T00:03:50.094Z,88.49
2018-03-14T00:06:17.648Z,88.60
2018-03-14T00:08:45.189Z,89.08
2018-03-14T00:11:12.762Z,89.30
2018-03-14T00:13:40.307Z,89.24
2018-03-14T00:16:08.010Z,88.87
2018-03-14T00:18:35.558Z,88.90
2018-03-14T00:21:03.119Z,89.08
2018-03-14T00:23:30.700Z,89.17
2018-03-14T00:25:58.303Z,89.29
2018-03-14T00:28:25.932Z,89.57
2018-03-14T00:30:53.505Z,89.34
2018-03-14T00:33:21.057Z,89.31
2018-03-14T00:35:48.634Z,89.49
2018-03-14T00:38:16.192Z,89.54
2018-03-14T00:40:43.754Z,89.01
2018-03-14T00:43:11.309Z,88.78
2018-03-14T00:45:38.909Z,89.07
2018-03-14T00:48:06.551Z,88.98
2018-03-14T00:50:34.108Z,89.17
2018-03-14T00:53:01.777Z,88.90
2018-03-14T00:55:29.361Z,88.56
2018-03-14T00:57:56.963Z,88.65
2018-03-14T01:00:24.516Z,88.69
2018-03-14T01:02:52.074Z,88.93
2018-03-14T01:05:19.690Z,88.62
2018-03-14T01:07:47.325Z,88.67
2018-03-14T01:10:14.881Z,88.39
2018-03-14T01:12:42.467Z,88.42
2018-03-14T01:15:10.017Z,88.16
2018-03-14T01:17:37.609Z,88.18
2018-03-14T01:20:05.171Z,88.25
2018-03-14T01:22:32.726Z,87.92
2018-03-14T01:25:00.285Z,88.25
2018-03-14T01:27:27.836Z,88.29
2018-03-14T01:29:55.396Z,87.87
2018-03-14T01:32:22.974Z,88.07
2018-03-14T01:34:50.542Z,88.10
2018-03-14T01:37:18.117Z,88.05
2018-03-14T01:39:45.684Z,87.75
2018-03-14T01:42:13.244Z,88.05
2018-03-14T01:44:40.839Z,88.27
2018-03-14T01:47:08.409Z,88.35
2018-03-14T01:49:36.042Z,88.50
2018-03-14T01:52:03.604Z,88.86
2018-03-14T01:54:31.201Z,88.95
2018-03-14T01:56:58.790Z,88.89
2018-03-14T01:59:26.408Z,88.83
2018-03-14T02:01:53.969Z,88.88
2018-03-14T02:04:21.530Z,88.63
2018-03-14T02:06:49.145Z,88.53
2018-03-14T02:09:16.732Z,88.56
2018-03-14T02:11:44.307Z,88.49
2018-03-14T02:14:11.874Z,88.52
2018-03-14T02:16:39.448Z,88.09
2018-03-14T02:19:07.007Z,88.11
2018-03-14T02:21:34.575Z,88.10
2018-03-14T02:24:02.139Z,87.90
2018-03-14T02:26:29.733Z,88.08
2018-03-14T02:28:57.332Z,88.26
2018-03-14T02:31:24.884Z,87.99
2018-03-14T02:33:52.529Z,87.81
2018-03-14T02:36:31.867Z,87.56
2018-03-14T02:38:59.422Z,87.71
2018-03-14T02:41:26.980Z,87.74
2018-03-14T02:43:54.538Z,87.58
2018-03-14T02:46:22.090Z,87.42
2018-03-14T02:48:49.645Z,87.36
2018-03-14T02:51:17.195Z,87.44
2018-03-14T02:53:44.750Z,87.66
2018-03-14T02:56:12.303Z,87.64
2018-03-14T02:58:39.883Z,87.87
2018-03-14T03:01:07.450Z,87.42
2018-03-14T03:03:34.995Z,87.56
2018-03-14T03:06:02.549Z,87.72
2018-03-14T03:08:30.090Z,87.83
2018-03-14T03:10:57.655Z,87.80
2018-03-14T03:13:25.206Z,87.43
2018-03-14T03:15:52.752Z,87.52
2018-03-14T03:18:20.295Z,87.79
2018-03-14T03:20:47.838Z,87.79
2018-03-14T03:23:15.378Z,87.75
2018-03-14T03:25:42.933Z,87.88
2018-03-14T03:28:10.490Z,87.87
2018-03-14T03:30:38.039Z,87.79
2018-03-14T03:33:05.581Z,88.37
2018-03-14T03:35:33.126Z,88.15
2018-03-14T03:38:00.674Z,88.28
2018-03-14T03:40:28.200Z,87.98
2018-03-14T03:42:55.778Z,88.05
2018-03-14T03:45:23.332Z,87.83
2018-03-14T03:47:50.933Z,87.87
2018-03-14T03:50:18.465Z,88.06
2018-03-14T03:52:46.006Z,88.19
2018-03-14T03:55:13.550Z,88.17
2018-03-14T03:57:41.084Z,88.30
2018-03-14T04:00:08.627Z,88.40
2018-03-14T04:02:36.152Z,88.50
2018-03-14T04:05:03.704Z,88.27
2018-03-14T04:07:31.328Z,88.17
2018-03-14T04:09:58.890Z,88.34
2018-03-14T04:12:26.813Z,88.19
2018-03-14T04:14:54.357Z,88.27
2018-03-14T04:17:21.920Z,88.22
2018-03-14T04:19:49.483Z,88.17
2018-03-14T04:22:17.020Z,87.99
2018-03-14T04:24:44.567Z,88.03
2018-03-14T04:27:12.110Z,88.18
2018-03-14T04:29:39.647Z,88.01
2018-03-14T04:32:07.220Z,87.75
2018-03-14T04:34:34.769Z,87.80
2018-03-14T04:37:02.304Z,87.72
2018-03-14T04:39:29.851Z,87.61
2018-03-14T04:41:57.398Z,87.68
2018-03-14T04:44:24.934Z,87.57
2018-03-14T04:46:54.255Z,87.79
2018-03-14T04:49:21.795Z,87.54
2018-03-14T04:51:49.328Z,87.79
2018-03-14T04:54:17.386Z,88.04
2018-03-14T04:56:44.921Z,87.73
2018-03-14T04:59:12.462Z,87.52
2018-03-14T05:01:40.033Z,87.64
2018-03-14T05:04:07.573Z,87.75
2018-03-14T05:06:35.128Z,87.43
2018-03-14T05:09:02.686Z,87.28
2018-03-14T05:11:30.253Z,87.25
2018-03-14T05:13:57.798Z,87.26
2018-03-14T05:16:25.377Z,87.03
2018-03-14T05:18:52.926Z,86.98
2018-03-14T05:21:20.478Z,86.83
2018-03-14T05:23:48.059Z,86.85
2018-03-14T05:26:15.602Z,86.73
2018-03-14T05:28:43.138Z,87.01
2018-03-14T05:31:10.674Z,86.98
2018-03-14T05:33:38.215Z,87.03
2018-03-14T05:36:05.761Z,86.95
2018-03-14T05:38:33.301Z,86.75
2018-03-14T05:41:00.861Z,86.65
2018-03-14T05:43:28.400Z,86.41
2018-03-14T05:45:55.942Z,86.48
2018-03-14T05:48:23.478Z,86.49
2018-03-14T05:50:51.014Z,86.50
2018-03-14T05:53:18.573Z,86.24
2018-03-14T05:55:46.107Z,86.15
2018-03-14T05:58:13.658Z,86.38
2018-03-14T06:00:41.206Z,86.34
2018-03-14T06:03:08.749Z,86.34
2018-03-14T06:05:36.290Z,86.18
2018-03-14T06:08:03.834Z,86.20
2018-03-14T06:10:31.392Z,86.19
2018-03-14T06:12:58.946Z,86.09
2018-03-14T06:15:26.500Z,85.74
2018-03-14T06:17:54.054Z,85.54
2018-03-14T06:20:21.591Z,85.64
2018-03-14T06:22:49.138Z,85.66
2018-03-14T06:25:16.716Z,85.59
2018-03-14T06:27:44.263Z,85.71
2018-03-14T06:30:11.811Z,85.62
2018-03-14T06:32:39.351Z,85.44
2018-03-14T06:35:08.062Z,85.60
2018-03-14T06:37:35.607Z,85.45
2018-03-14T06:40:03.148Z,85.30
2018-03-14T06:42:30.698Z,85.21
2018-03-14T06:44:58.232Z,85.19
2018-03-14T06:47:25.776Z,85.25
2018-03-14T06:49:53.327Z,85.11
2018-03-14T06:52:20.888Z,85.01
2018-03-14T06:54:48.434Z,84.81
2018-03-14T06:57:15.979Z,85.28
2018-03-14T06:59:55.585Z,85.56
2018-03-14T07:05:40.427Z,84.85
2018-03-14T07:08:07.973Z,85.27
2018-03-14T07:10:35.526Z,84.39
2018-03-14T07:13:03.069Z,84.72
2018-03-14T07:15:30.621Z,84.73
2018-03-14T07:17:58.178Z,85.10
2018-03-14T07:20:25.735Z,85.00
2018-03-14T07:22:53.288Z,84.93
2018-03-14T07:25:20.849Z,84.66
2018-03-14T07:27:48.470Z,84.59
2018-03-14T07:30:16.049Z,84.53
2018-03-14T07:32:43.595Z,84.72
2018-03-14T07:35:11.131Z,84.78
2018-03-14T07:37:38.718Z,84.55
2018-03-14T07:40:06.237Z,85.21
2018-03-14T07:42:33.795Z,84.61
2018-03-14T07:45:01.333Z,85.00
2018-03-14T07:47:28.880Z,85.15
2018-03-14T07:49:56.423Z,85.47
2018-03-14T07:52:23.969Z,85.78
2018-03-14T07:54:51.501Z,85.86
2018-03-14T07:57:19.073Z,86.23
2018-03-14T07:59:46.626Z,86.16
2018-03-14T08:02:14.194Z,86.57
2018-03-14T08:04:41.747Z,86.83
2018-03-14T08:07:09.294Z,86.38
2018-03-14T08:09:36.853Z,88.06
2018-03-14T08:12:04.445Z,90.34
2018-03-14T08:14:32.001Z,87.95
2018-03-14T08:16:59.575Z,86.61
2018-03-14T08:19:27.141Z,87.17
2018-03-14T08:21:54.686Z,86.73
2018-03-14T08:24:22.264Z,86.56
2018-03-14T08:26:49.820Z,86.09
2018-03-14T08:29:17.401Z,86.75
2018-03-14T08:31:44.987Z,85.42
2018-03-14T08:34:12.630Z,85.76
2018-03-14T08:36:40.182Z,85.07
2018-03-14T08:39:07.797Z,84.73
2018-03-14T08:41:35.359Z,84.62
2018-03-14T08:44:02.955Z,85.26
2018-03-14T08:46:30.486Z,85.50
2018-03-14T08:48:58.032Z,85.04
2018-03-14T08:51:25.575Z,85.11
2018-03-14T08:53:53.122Z,85.62
2018-03-14T08:56:20.680Z,84.79
2018-03-14T08:58:48.229Z,85.08
2018-03-14T09:01:15.765Z,84.52
2018-03-14T09:03:43.298Z,84.50
2018-03-14T09:06:10.858Z,85.06
2018-03-14T09:08:38.407Z,84.34
2018-03-14T09:11:05.970Z,83.68
2018-03-14T09:13:33.541Z,83.47
2018-03-14T09:16:01.087Z,83.55
2018-03-14T09:18:28.627Z,82.82
2018-03-14T09:20:56.246Z,83.25
2018-03-14T09:23:23.781Z,83.09
2018-03-14T09:25:51.317Z,83.44
2018-03-14T09:28:18.905Z,83.16
2018-03-14T09:30:46.449Z,83.62
2018-03-14T09:33:14.023Z,82.50
2018-03-14T09:35:41.563Z,82.04
2018-03-14T09:38:09.166Z,82.30
2018-03-14T09:40:37.001Z,81.35
2018-03-14T09:43:04.554Z,80.70
2018-03-14T09:45:32.073Z,80.73
2018-03-14T09:47:59.718Z,79.32
2018-03-14T09:50:27.263Z,79.02
2018-03-14T09:52:54.817Z,78.84
2018-03-14T09:55:22.397Z,78.79
2018-03-14T09:57:49.962Z,79.01
2018-03-14T10:00:17.528Z,79.23
2018-03-14T10:02:45.065Z,78.57
2018-03-14T10:05:12.620Z,79.53
2018-03-14T10:07:40.165Z,79.97
2018-03-14T10:10:07.730Z,79.68
2018-03-14T10:12:35.278Z,79.00
2018-03-14T10:15:02.813Z,79.55
2018-03-14T10:17:30.395Z,78.87
2018-03-14T10:19:57.957Z,79.23
2018-03-14T10:22:25.694Z,79.95
2018-03-14T10:24:53.213Z,79.41
2018-03-14T10:27:20.750Z,79.13
2018-03-14T10:29:48.328Z,78.32
2018-03-14T10:32:15.857Z,79.57
2018-03-14T10:34:43.391Z,79.40
2018-03-14T10:37:10.978Z,78.51
2018-03-14T10:39:38.509Z,78.92
2018-03-14T10:42:06.030Z,78.83
2018-03-14T10:44:33.626Z,78.74
2018-03-14T10:47:01.157Z,77.98
2018-03-14T10:49:28.729Z,79.03
2018-03-14T10:51:56.249Z,79.33
2018-03-14T10:54:23.830Z,79.50
2018-03-14T10:56:51.361Z,80.23
2018-03-14T10:59:18.889Z,80.74
2018-03-14T11:01:47.290Z,81.16
2018-03-14T11:04:14.823Z,81.86
2018-03-14T11:06:42.455Z,81.63
2018-03-14T11:09:09.982Z,81.41
2018-03-14T11:11:37.579Z,81.78
2018-03-14T11:14:05.207Z,81.26
2018-03-14T11:16:32.793Z,82.00
2018-03-14T11:19:00.312Z,81.60
2018-03-14T11:21:27.878Z,81.41
2018-03-14T11:23:55.505Z,81.60
2018-03-14T11:26:23.044Z,82.06
2018-03-14T11:28:50.565Z,82.60
2018-03-14T11:31:19.079Z,82.88
2018-03-14T11:33:46.606Z,83.24
2018-03-14T11:36:14.126Z,84.21
2018-03-14T11:38:41.645Z,84.34
2018-03-14T11:41:09.171Z,84.82
2018-03-14T11:43:36.704Z,85.36
2018-03-14T11:46:04.331Z,85.47
2018-03-14T11:48:31.880Z,84.88
2018-03-14T11:50:59.419Z,84.51
2018-03-14T11:53:26.946Z,84.31
2018-03-14T11:55:54.474Z,83.76
2018-03-14T11:58:22.004Z,83.98
2018-03-14T12:00:49.655Z,83.46
2018-03-14T12:03:17.197Z,83.35
2018-03-14T12:05:44.717Z,82.88
2018-03-14T12:08:12.273Z,82.61
2018-03-14T12:10:39.882Z,82.09
2018-03-14T12:13:07.398Z,82.37
2018-03-14T12:15:34.913Z,81.99
2018-03-14T12:18:02.558Z,82.28
2018-03-14T12:20:30.147Z,81.76
2018-03-14T12:22:57.700Z,81.66
2018-03-14T12:25:25.254Z,80.86
2018-03-14T12:27:52.816Z,80.87
2018-03-14T12:30:20.392Z,80.52
2018-03-14T12:32:47.992Z,80.65
2018-03-14T12:35:15.542Z,81.01
2018-03-14T12:37:43.099Z,81.15
2018-03-14T12:40:10.661Z,81.24
2018-03-14T12:42:38.262Z,81.51
2018-03-14T12:45:05.824Z,81.71
2018-03-14T12:47:33.557Z,80.92
2018-03-14T12:50:01.106Z,80.87
2018-03-14T12:52:28.660Z,80.21
2018-03-14T12:54:56.198Z,80.50
2018-03-14T12:57:23.778Z,80.74
2018-03-14T12:59:51.345Z,80.52
2018-03-14T13:02:18.893Z,81.00
2018-03-14T13:04:46.446Z,80.82
2018-03-14T13:07:13.994Z,81.12
2018-03-14T13:09:41.558Z,80.82
2018-03-14T13:12:09.150Z,81.25
2018-03-14T13:14:36.701Z,80.27
2018-03-14T13:17:04.244Z,78.83
2018-03-14T13:19:31.825Z,78.97
2018-03-14T13:21:59.381Z,77.85
2018-03-14T13:24:26.939Z,77.62
2018-03-14T13:26:54.481Z,78.01
2018-03-14T13:29:22.359Z,77.85
2018-03-14T13:31:49.903Z,76.89
2018-03-14T13:34:17.456Z,77.79
2018-03-14T13:36:45.005Z,77.09
2018-03-14T13:39:12.563Z,76.39
2018-03-14T13:41:40.110Z,76.68
2018-03-14T15:06:04.721Z,73.22
2018-03-14T15:08:32.284Z,72.52
2018-03-14T15:10:59.826Z,71.90
2018-03-14T15:13:27.365Z,72.37
2018-03-14T15:15:54.911Z,72.58
2018-03-14T15:18:22.463Z,72.37
2018-03-14T15:20:50.084Z,71.77
2018-03-14T15:23:17.711Z,71.38
2018-03-14T15:25:45.264Z,71.51
2018-03-14T15:28:12.812Z,72.47
2018-03-14T15:30:40.388Z,72.67
2018-03-14T15:33:07.929Z,72.94
2018-03-14T15:35:35.466Z,72.45
2018-03-14T15:38:03.028Z,71.97
2018-03-14T15:40:30.638Z,72.30
2018-03-14T15:42:58.191Z,72.34
2018-03-14T15:45:25.731Z,71.74
2018-03-14T15:47:53.273Z,70.75
2018-03-14T15:50:20.810Z,70.55
2018-03-14T15:52:48.355Z,69.54
2018-03-14T15:55:15.970Z,70.03
2018-03-14T15:57:43.557Z,69.92
2018-03-14T16:00:11.114Z,69.87
2018-03-14T16:02:38.673Z,71.04
2018-03-14T16:05:06.268Z,72.12
2018-03-14T16:07:33.807Z,72.87
2018-03-14T16:10:01.447Z,73.30
2018-03-14T16:12:29.079Z,72.95
2018-03-14T16:14:56.790Z,72.63
2018-03-14T16:17:24.505Z,72.43
2018-03-14T16:19:52.105Z,72.65
2018-03-14T16:22:19.690Z,72.24
2018-03-14T16:24:47.258Z,72.30
2018-03-14T16:27:14.829Z,72.61
2018-03-14T16:29:42.426Z,73.42
2018-03-14T16:32:09.995Z,73.14
2018-03-14T16:34:37.547Z,73.65
2018-03-14T16:37:05.121Z,74.12
2018-03-14T16:39:32.671Z,74.46
2018-03-14T16:42:00.254Z,75.07
2018-03-14T16:44:27.849Z,75.07
2018-03-14T16:46:55.427Z,75.83
2018-03-14T16:49:22.997Z,76.11
2018-03-14T16:51:50.542Z,76.64
2018-03-14T16:54:18.110Z,77.11
2018-03-14T16:56:45.682Z,77.62
2018-03-14T16:59:13.246Z,78.20
2018-03-14T17:01:40.838Z,78.54
2018-03-14T17:04:08.389Z,78.84
2018-03-14T17:06:35.941Z,78.90
2018-03-14T17:09:03.489Z,78.77
2018-03-14T17:11:31.078Z,79.37
2018-03-14T17:13:58.638Z,79.61
2018-03-14T17:16:26.203Z,80.00
2018-03-14T17:18:53.787Z,80.02
2018-03-14T17:21:21.334Z,80.13
2018-03-14T17:23:48.879Z,80.26
2018-03-14T17:26:16.438Z,80.41
2018-03-14T17:28:43.974Z,80.74
2018-03-14T17:31:11.517Z,81.05
2018-03-14T17:33:39.147Z,80.95
2018-03-14T17:36:06.662Z,81.04
2018-03-14T17:38:34.535Z,81.03
2018-03-14T17:41:02.036Z,81.19
2018-03-14T17:43:29.559Z,81.45
2018-03-14T17:45:57.155Z,81.40
2018-03-14T17:48:24.693Z,81.42
2018-03-14T17:50:52.225Z,81.57
2018-03-14T17:53:19.739Z,81.55
2018-03-14T17:55:47.266Z,81.50
2018-03-14T17:58:14.814Z,81.88
2018-03-14T18:00:42.330Z,82.02
2018-03-14T18:03:09.970Z,82.04
2018-03-14T18:05:37.494Z,82.11
2018-03-14T18:08:05.025Z,81.88
2018-03-14T18:10:32.551Z,81.95
2018-03-14T18:13:00.387Z,82.18
2018-03-14T18:15:27.936Z,82.18
2018-03-14T18:17:55.453Z,82.31
2018-03-14T18:20:22.969Z,82.12
2018-03-14T18:22:50.549Z,82.40
2018-03-14T18:25:18.110Z,82.19
2018-03-14T18:27:45.637Z,82.39
2018-03-14T18:30:13.154Z,82.62
2018-03-14T18:32:40.810Z,82.79
2018-03-14T18:35:08.350Z,82.91
2018-03-14T18:37:35.878Z,83.14
2018-03-14T18:40:03.633Z,83.33
2018-03-14T18:42:31.162Z,83.57
2018-03-14T18:44:58.691Z,83.34
2018-03-14T18:47:26.219Z,83.69
2018-03-14T18:49:53.785Z,83.90
2018-03-14T18:52:21.307Z,84.17
2018-03-14T18:54:48.829Z,84.09
2018-03-14T18:57:16.387Z,83.92
2018-03-14T18:59:43.929Z,84.23
2018-03-14T19:02:11.492Z,84.21
2018-03-14T19:04:39.299Z,84.16
2018-03-14T19:07:06.801Z,83.85
2018-03-14T19:09:34.338Z,83.26
2018-03-14T19:12:01.894Z,83.59
2018-03-14T19:14:29.442Z,83.34
2018-03-14T19:16:56.971Z,83.18
2018-03-14T19:19:24.498Z,83.00
2018-03-14T19:21:52.023Z,82.75
2018-03-14T19:24:19.547Z,82.88
2018-03-14T19:26:47.077Z,82.95
2018-03-14T19:29:14.589Z,83.15
2018-03-14T19:31:42.107Z,83.28
2018-03-14T19:34:09.616Z,83.23
2018-03-14T19:36:37.141Z,83.27
2018-03-14T19:39:04.688Z,83.53
2018-03-14T19:41:32.259Z,83.24
2018-03-14T19:43:59.784Z,83.26
2018-03-14T19:46:27.383Z,83.27
2018-03-14T19:48:54.925Z,83.05
2018-03-14T19:51:22.471Z,83.22
2018-03-14T19:53:49.997Z,82.92
2018-03-14T19:56:17.619Z,82.86
2018-03-14T19:58:45.111Z,83.04
2018-03-14T20:01:12.744Z,82.88
2018-03-14T20:03:40.635Z,82.68
2018-03-14T20:06:08.175Z,82.64
2018-03-14T20:08:35.711Z,82.67
2018-03-14T20:11:03.242Z,83.14
2018-03-14T20:13:30.776Z,82.88
2018-03-14T20:15:58.313Z,82.65
2018-03-14T20:18:25.887Z,83.12
2018-03-14T20:20:53.531Z,83.17
2018-03-14T20:23:21.061Z,83.19
2018-03-14T20:25:48.650Z,82.92
2018-03-14T20:28:16.626Z,82.95
2018-03-14T20:30:44.249Z,82.79
2018-03-14T20:33:11.832Z,82.53
2018-03-14T20:35:39.402Z,82.60
2018-03-14T20:38:06.934Z,81.87
2018-03-14T20:40:34.462Z,81.93
2018-03-14T20:43:02.082Z,81.88
2018-03-14T20:45:29.654Z,81.60
2018-03-14T20:47:57.198Z,80.92
2018-03-14T20:50:24.831Z,80.72
2018-03-14T20:52:52.630Z,80.83
2018-03-14T20:55:20.158Z,80.78
2018-03-14T20:57:48.058Z,81.01
2018-03-14T21:00:15.641Z,81.11
2018-03-14T21:02:43.177Z,81.23
2018-03-14T21:05:10.742Z,81.35
2018-03-14T21:07:38.261Z,81.37
2018-03-14T21:10:05.882Z,81.34
2018-03-14T21:12:33.519Z,81.46
2018-03-14T21:15:01.373Z,81.53
2018-03-14T21:17:28.961Z,81.54
2018-03-14T21:19:56.610Z,81.52
2018-03-14T21:22:24.134Z,81.74
2018-03-14T21:24:52.233Z,81.53
2018-03-14T21:27:19.769Z,81.48
2018-03-14T21:29:47.297Z,81.75
2018-03-14T21:32:15.154Z,81.35
2018-03-14T21:34:42.695Z,81.24
2018-03-14T21:37:10.216Z,81.47
2018-03-14T21:39:37.757Z,81.00
2018-03-14T21:42:05.294Z,81.32
2018-03-14T21:44:32.819Z,81.37
2018-03-14T21:47:00.434Z,81.10
2018-03-14T21:49:27.898Z,81.42
2018-03-14T21:51:55.470Z,81.69
2018-03-14T21:54:23.380Z,81.64
2018-03-14T21:56:51.088Z,82.08
2018-03-14T21:59:18.637Z,81.99
2018-03-14T22:01:46.196Z,82.03
2018-03-14T22:04:13.919Z,82.06
2018-03-14T22:06:41.441Z,82.32
2018-03-14T22:09:09.234Z,82.40
2018-03-14T22:14:29.802Z,82.18
2018-03-14T22:16:57.764Z,82.21
2018-03-14T22:19:25.633Z,81.97
2018-03-14T22:21:53.682Z,82.26
2018-03-14T22:24:21.525Z,81.88
2018-03-14T22:26:49.437Z,81.31
2018-03-14T22:29:17.405Z,81.50
2018-03-14T22:31:45.491Z,81.12
2018-03-14T22:34:13.100Z,81.39
2018-03-14T22:36:40.630Z,81.14
2018-03-14T22:39:08.206Z,81.25
2018-03-14T22:41:35.734Z,81.44
2018-03-14T22:44:03.344Z,81.68
2018-03-14T22:46:30.867Z,81.88
2018-03-14T22:48:58.384Z,81.91
2018-03-14T22:51:25.918Z,82.20
2018-03-14T22:53:53.445Z,81.96
2018-03-14T22:56:20.961Z,82.12
2018-03-14T22:58:48.497Z,82.29
2018-03-14T23:01:16.019Z,82.45
2018-03-14T23:03:43.561Z,82.64
2018-03-14T23:06:11.124Z,82.58
2018-03-14T23:08:38.681Z,82.48
2018-03-14T23:11:06.297Z,82.62
2018-03-14T23:13:33.965Z,82.45
